createdAt,value
2017-05-13T08:25:20.790Z,96.85
2017-05-13T08:26:21.475Z,97.04
2017-05-13T08:27:22.141Z,96.75
2017-05-13T08:28:22.829Z,96.47
2017-05-13T08:29:23.497Z,96.94
2017-05-13T08:30:24.194Z,97.81
2017-05-13T08:31:24.860Z,96.85
2017-05-13T08:32:25.537Z,96.56
2017-05-13T08:33:26.223Z,97.14
2017-05-13T08:34:26.888Z,97.14
2017-05-13T08:35:27.568Z,96.51
2017-05-13T08:36:28.330Z,95.84
2017-05-13T08:37:29.069Z,96.32
2017-05-13T08:38:29.768Z,95.65
2017-05-13T08:39:30.446Z,94.49
2017-05-13T08:40:31.123Z,94.4
2017-05-13T08:41:31.823Z,94.4
2017-05-13T08:42:32.484Z,94.49
2017-05-13T08:43:33.188Z,94.49
2017-05-13T08:44:33.859Z,94.64
2017-05-13T08:45:34.524Z,94.64
2017-05-13T08:46:35.223Z,95.31
2017-05-13T08:47:35.904Z,95.7
2017-05-13T08:48:36.615Z,95.17
2017-05-13T08:49:37.307Z,95.31
2017-05-13T08:50:37.972Z,95.07
2017-05-13T08:51:38.665Z,95.21
2017-05-13T08:52:39.356Z,95.03
2017-05-13T08:53:40.066Z,94.84
2017-05-13T08:54:40.746Z,95.6
2017-05-13T08:55:41.466Z,95.51
2017-05-13T08:56:42.134Z,95.75
2017-05-13T08:57:42.838Z,95.84
2017-05-13T08:58:43.530Z,95.84
2017-05-13T08:59:44.220Z,94.79
2017-05-13T09:00:44.910Z,95.94
2017-05-13T09:01:45.658Z,95.94
2017-05-13T09:02:46.348Z,95.55
2017-05-13T09:03:47.059Z,95.84
2017-05-13T09:04:47.751Z,94.88
2017-05-13T09:05:48.444Z,94.98
2017-05-13T09:06:49.109Z,95.36
2017-05-13T09:07:49.834Z,95.65
2017-05-13T09:08:50.535Z,96.03
2017-05-13T09:09:51.238Z,96.42
2017-05-13T09:10:51.936Z,95.65
2017-05-13T09:11:52.616Z,96.51
2017-05-13T09:12:53.306Z,95.94
2017-05-13T09:13:54.000Z,96.7
2017-05-13T09:14:54.690Z,96.51
2017-05-13T09:15:55.396Z,96.89
2017-05-13T09:16:56.039Z,96.7
2017-05-13T09:17:56.727Z,96.51
2017-05-13T09:18:57.414Z,96.42
2017-05-13T09:19:58.154Z,96.22
2017-05-13T09:20:58.860Z,96.03
2017-05-13T09:21:59.557Z,96.42
2017-05-13T09:23:00.241Z,96.8
2017-05-13T09:24:00.899Z,96.61
2017-05-13T09:25:01.578Z,96.61
2017-05-13T09:26:02.265Z,96.42
2017-05-13T09:27:02.967Z,96.22
2017-05-13T09:28:03.682Z,96.61
2017-05-13T09:29:04.319Z,97.24
2017-05-13T09:30:04.990Z,97.09
2017-05-13T09:31:05.670Z,96.99
2017-05-13T09:32:06.351Z,96.8
2017-05-13T09:33:07.029Z,96.56
2017-05-13T09:34:07.735Z,96.8
2017-05-13T09:35:08.455Z,95.75
2017-05-13T09:36:09.177Z,96.03
2017-05-13T09:37:09.850Z,95.94
2017-05-13T09:38:10.533Z,96.8
2017-05-13T09:39:11.231Z,96.66
2017-05-13T09:40:11.919Z,96.7
2017-05-13T09:41:12.583Z,97.38
2017-05-13T09:42:13.255Z,97.14
2017-05-13T09:43:13.976Z,97.14
2017-05-13T09:44:14.660Z,96.27
2017-05-13T09:45:15.389Z,96.18
2017-05-13T09:46:16.060Z,95.65
2017-05-13T09:47:16.730Z,95.65
2017-05-13T09:48:17.411Z,94.59
2017-05-13T09:49:18.082Z,94.31
2017-05-13T09:50:18.770Z,92.77
2017-05-13T09:51:19.459Z,92.29
2017-05-13T09:52:20.121Z,91.33
2017-05-13T09:53:20.803Z,91.42
2017-05-13T09:54:21.469Z,91.71
2017-05-13T09:55:22.167Z,91.81
2017-05-13T09:56:22.884Z,91.9
2017-05-13T09:57:23.558Z,91.81
2017-05-13T09:58:24.284Z,90.46
2017-05-13T09:59:24.990Z,90.75
2017-05-13T10:00:25.699Z,90.08
2017-05-13T10:01:26.423Z,90.8
2017-05-13T10:02:27.115Z,89.79
2017-05-13T10:03:27.787Z,89.98
2017-05-13T10:04:28.471Z,89.26
2017-05-13T10:05:29.159Z,88.49
2017-05-13T10:06:29.901Z,87.53
2017-05-13T10:07:30.599Z,88.68
2017-05-13T10:08:31.284Z,87.62
2017-05-13T10:09:32.005Z,87.53
2017-05-13T10:10:32.693Z,87.43
2017-05-13T10:11:33.372Z,87.09
2017-05-13T10:12:34.049Z,86.71
2017-05-13T10:13:34.728Z,85.84
2017-05-13T10:14:35.414Z,85.07
2017-05-13T10:15:36.090Z,83.96
2017-05-13T10:16:36.773Z,83.73
2017-05-13T10:17:37.453Z,84.06
2017-05-13T10:18:38.119Z,83.77
2017-05-13T10:19:38.820Z,83.29
2017-05-13T10:20:39.535Z,83.19
2017-05-13T10:21:40.229Z,83.29
2017-05-13T10:22:40.929Z,81.94
2017-05-13T10:23:41.618Z,82.81
2017-05-13T10:24:42.320Z,82.17
2017-05-13T10:25:42.992Z,82.04
2017-05-13T10:26:43.687Z,80.44
2017-05-13T10:27:44.414Z,80.63
2017-05-13T10:28:45.107Z,81.02
2017-05-13T10:29:45.786Z,80.73
2017-05-13T10:30:46.460Z,80.15
2017-05-13T10:31:47.179Z,79.9
2017-05-13T10:32:47.861Z,79.33
2017-05-13T10:33:48.577Z,78.52
2017-05-13T10:34:49.254Z,78.03
2017-05-13T10:35:49.940Z,78.9
2017-05-13T10:36:50.722Z,77.94
2017-05-13T10:37:51.411Z,78.81
2017-05-13T10:38:52.083Z,78.13
2017-05-13T10:39:52.756Z,78.23
2017-05-13T10:40:53.443Z,78.81
2017-05-13T10:41:54.153Z,78.71
2017-05-13T10:42:54.833Z,79.19
2017-05-13T10:43:55.529Z,78.52
2017-05-13T10:44:56.234Z,78.9
2017-05-13T10:45:56.922Z,79.03
2017-05-13T10:46:57.613Z,79.48
2017-05-13T10:47:58.316Z,79.28
2017-05-13T10:48:59.020Z,79.38
2017-05-13T10:49:59.691Z,78.71
2017-05-13T10:51:00.521Z,78.52
2017-05-13T10:52:01.209Z,77.75
2017-05-13T10:53:01.915Z,78.33
2017-05-13T10:54:02.616Z,77.36
2017-05-13T10:55:03.308Z,77.84
2017-05-13T10:56:04.027Z,77.26
2017-05-13T10:57:04.741Z,76.98
2017-05-13T10:58:05.447Z,77.36
2017-05-13T10:59:06.167Z,78.42
2017-05-13T11:00:06.873Z,78.52
2017-05-13T11:01:07.529Z,78.42
2017-05-13T11:02:08.277Z,78.03
2017-05-13T11:03:08.938Z,76.88
2017-05-13T11:04:10.469Z,76.01
2017-05-13T11:05:11.152Z,76.31
2017-05-13T11:06:11.836Z,76.88
2017-05-13T11:07:12.521Z,76.06
2017-05-13T11:08:13.237Z,76.34
2017-05-13T11:09:13.921Z,76.25
2017-05-13T11:10:14.604Z,75.19
2017-05-13T11:11:15.280Z,74.51
2017-05-13T11:12:15.971Z,74.13
2017-05-13T11:13:16.661Z,74.03
2017-05-13T11:14:17.350Z,73.78
2017-05-13T11:15:18.030Z,72.88
2017-05-13T11:16:18.709Z,73.94
2017-05-13T11:17:19.406Z,73.01
2017-05-13T11:18:20.098Z,73.49
2017-05-13T11:19:20.800Z,73.39
2017-05-13T11:20:21.542Z,72.43
2017-05-13T11:21:22.225Z,71.85
2017-05-13T11:22:22.932Z,71.47
2017-05-13T11:23:23.609Z,72.14
2017-05-13T11:24:24.310Z,71.85
2017-05-13T11:25:25.001Z,72.72
2017-05-13T11:26:25.713Z,73.07
2017-05-13T11:27:26.406Z,73.58
2017-05-13T11:28:27.107Z,73.88
2017-05-13T11:29:27.800Z,73.78
2017-05-13T11:30:28.509Z,73.88
2017-05-13T11:31:29.203Z,72.91
2017-05-13T11:32:29.953Z,72.43
2017-05-13T11:33:30.643Z,72.08
2017-05-13T11:34:31.350Z,71.6
2017-05-13T11:35:32.067Z,70.21
2017-05-13T11:36:32.809Z,70.12
2017-05-13T11:37:33.491Z,70.21
2017-05-13T11:38:34.181Z,71.28
2017-05-13T11:39:34.872Z,69.93
2017-05-13T11:40:35.545Z,69.25
2017-05-13T11:41:36.369Z,69.67
2017-05-13T11:42:37.088Z,69.83
2017-05-13T11:43:37.795Z,69.87
2017-05-13T11:44:38.480Z,69.57
2017-05-13T11:45:39.185Z,69.77
2017-05-13T11:46:39.895Z,68.9
2017-05-13T11:47:40.580Z,69.67
2017-05-13T11:48:41.415Z,71.41
2017-05-13T11:49:42.122Z,70.83
2017-05-13T11:50:42.815Z,68.9
2017-05-13T11:51:43.511Z,68.52
2017-05-13T11:52:44.346Z,68.99
2017-05-13T11:53:45.091Z,68.99
2017-05-13T11:54:45.789Z,68.71
2017-05-13T11:55:46.613Z,67.46
2017-05-13T11:56:47.464Z,67.55
2017-05-13T11:57:48.187Z,68.52
2017-05-13T11:58:48.883Z,68.99
2017-05-13T11:59:49.569Z,70.54
2017-05-13T12:00:50.320Z,71.41
2017-05-13T12:01:51.199Z,71.7
2017-05-13T12:02:51.913Z,72.66
2017-05-13T12:03:52.627Z,73.1
2017-05-13T12:04:53.341Z,74.65
2017-05-13T12:05:54.033Z,74.93
2017-05-13T12:06:54.731Z,75.13
2017-05-13T12:07:55.435Z,75.03
2017-05-13T12:08:56.233Z,74.45
2017-05-13T12:09:56.919Z,74.65
2017-05-13T12:10:57.657Z,75.13
2017-05-13T12:11:58.346Z,75.23
2017-05-13T12:12:59.044Z,75.23
2017-05-13T12:13:59.761Z,75.48
2017-05-13T12:15:00.503Z,75.48
2017-05-13T12:16:01.184Z,75.67
2017-05-13T12:17:02.040Z,76.15
2017-05-13T12:18:02.775Z,76.44
2017-05-13T12:19:03.481Z,76.63
2017-05-13T12:20:04.249Z,77.01
2017-05-13T12:21:04.857Z,77.78
2017-05-13T12:22:05.581Z,77.5
2017-05-13T12:23:06.282Z,77.4
2017-05-13T12:24:07.004Z,77.21
2017-05-13T12:25:07.705Z,78.03
2017-05-13T12:26:08.390Z,78.33
2017-05-13T12:27:09.082Z,78.81
2017-05-13T12:28:09.776Z,78.42
2017-05-13T12:29:10.463Z,79
2017-05-13T12:30:11.169Z,78.42
2017-05-13T12:31:11.863Z,78.48
2017-05-13T12:32:12.560Z,79.05
2017-05-13T12:33:13.272Z,78.96
2017-05-13T12:34:13.964Z,78.86
2017-05-13T12:35:14.679Z,79.53
2017-05-13T12:36:15.371Z,79.35
2017-05-13T12:37:16.060Z,79.44
2017-05-13T12:38:16.789Z,80.21
2017-05-13T12:39:17.573Z,79.82
2017-05-13T12:40:18.283Z,80.4
2017-05-13T12:41:18.988Z,80.46
2017-05-13T12:42:19.684Z,80.5
2017-05-13T12:43:20.376Z,80.94
2017-05-13T12:44:21.058Z,81.04
2017-05-13T12:45:21.824Z,81.04
2017-05-13T12:46:22.503Z,81.52
2017-05-13T12:47:23.239Z,81.9
2017-05-13T12:48:24.012Z,81.9
2017-05-13T12:49:24.702Z,81.9
2017-05-13T12:50:25.382Z,82.19
2017-05-13T12:51:26.081Z,82.67
2017-05-13T12:52:26.769Z,82.86
2017-05-13T12:53:27.469Z,82.96
2017-05-13T12:54:28.150Z,82.57
2017-05-13T12:55:28.862Z,82.57
2017-05-13T12:56:29.549Z,83.06
2017-05-13T12:57:30.270Z,82.86
2017-05-13T12:58:31.062Z,82.53
2017-05-13T12:59:31.768Z,82.15
2017-05-13T13:00:32.499Z,81.67
2017-05-13T13:01:33.294Z,81.86
2017-05-13T13:02:34.009Z,81.67
2017-05-13T13:03:34.714Z,81.96
2017-05-13T13:04:35.533Z,81.82
2017-05-13T13:05:36.266Z,82.59
2017-05-13T13:06:37.006Z,82.01
2017-05-13T13:07:37.729Z,82.3
2017-05-13T13:08:38.449Z,82.1
2017-05-13T13:09:39.133Z,82.59
2017-05-13T13:10:39.816Z,83.16
2017-05-13T13:11:40.701Z,84.22
2017-05-13T13:12:41.470Z,83.93
2017-05-13T13:13:42.295Z,83.84
2017-05-13T13:14:42.981Z,84.85
2017-05-13T13:15:43.719Z,85.62
2017-05-13T13:16:44.421Z,86.1
2017-05-13T13:17:45.128Z,86.58
2017-05-13T13:18:45.806Z,87.25
2017-05-13T13:19:46.513Z,87.92
2017-05-13T13:20:47.212Z,88.21
2017-05-13T13:21:47.937Z,88.69
2017-05-13T13:22:48.643Z,88.45
2017-05-13T13:23:49.307Z,88.93
2017-05-13T13:24:49.977Z,89.51
2017-05-13T13:25:50.649Z,90.13
2017-05-13T13:26:51.343Z,90.18
2017-05-13T13:27:52.041Z,91.28
2017-05-13T13:28:52.764Z,91.52
2017-05-13T13:29:53.446Z,92.29
2017-05-13T13:30:54.136Z,93.25
2017-05-13T13:31:54.817Z,94.02
2017-05-13T13:32:55.543Z,94.31
2017-05-13T13:33:56.253Z,94.49
2017-05-13T13:34:56.942Z,95.94
2017-05-13T13:35:57.634Z,96.13
2017-05-13T13:36:58.301Z,95.46
2017-05-13T13:37:58.979Z,96.22
2017-05-13T13:38:59.668Z,96.13
2017-05-13T13:40:00.386Z,97.86
2017-05-13T13:41:01.103Z,98.53
2017-05-13T13:42:01.785Z,98.62
2017-05-13T13:43:02.503Z,98.24
2017-05-13T13:44:03.206Z,98.72
2017-05-13T13:45:03.874Z,99.2
2017-05-13T13:46:04.557Z,99.01
2017-05-13T13:47:05.259Z,99.2
2017-05-13T13:48:05.959Z,99.49
2017-05-13T13:49:06.672Z,99.99
2017-05-13T13:50:07.352Z,99.77
2017-05-13T13:51:08.022Z,99.99
2017-05-13T13:52:08.732Z,99.29
2017-05-13T13:53:09.409Z,99.01
2017-05-13T13:54:10.085Z,99.29
2017-05-13T13:55:10.796Z,99.39
2017-05-13T13:56:11.505Z,99.25
2017-05-13T13:57:12.233Z,99.01
2017-05-13T13:58:12.924Z,98.91
2017-05-13T13:59:13.602Z,97.28
2017-05-13T14:00:14.272Z,97.47
2017-05-13T14:01:14.971Z,97.66
2017-05-13T14:02:15.701Z,98.86
2017-05-13T14:03:16.393Z,98.77
2017-05-13T14:04:17.109Z,99.58
2017-05-13T14:05:17.791Z,99.82
2017-05-13T14:06:18.477Z,99.96
2017-05-13T14:07:19.172Z,99.99
2017-05-13T14:08:19.878Z,99.99
2017-05-13T14:09:20.574Z,99.99
2017-05-13T14:10:21.255Z,99.99
2017-05-13T14:11:21.924Z,99.99
2017-05-13T14:12:22.637Z,99.99
2017-05-13T14:13:23.327Z,99.99
2017-05-13T14:14:24.057Z,99.99
2017-05-13T14:15:24.741Z,99.99
2017-05-13T14:16:25.448Z,99.99
2017-05-13T14:17:26.149Z,99.99
2017-05-13T14:18:26.833Z,99.99
2017-05-13T14:19:27.497Z,99.99
2017-05-13T14:20:28.182Z,99.99
2017-05-13T14:21:28.877Z,99.99
2017-05-13T14:22:29.609Z,99.99
2017-05-13T14:23:30.301Z,99.99
2017-05-13T14:24:30.994Z,99.99
2017-05-13T14:25:31.710Z,99.99
2017-05-13T14:26:32.424Z,99.99
2017-05-13T14:27:33.098Z,99.99
2017-05-13T14:28:33.780Z,99.99
2017-05-13T14:29:34.486Z,99.99
2017-05-13T14:30:35.198Z,99.99
2017-05-13T14:31:35.908Z,99.99
2017-05-13T14:32:36.597Z,99.99
2017-05-13T14:33:37.274Z,99.99
2017-05-13T14:34:37.956Z,99.77
2017-05-13T14:35:38.648Z,99.01
2017-05-13T14:36:39.362Z,99.2
2017-05-13T14:37:40.056Z,99.01
2017-05-13T14:38:40.736Z,99.29
2017-05-13T14:39:41.403Z,98.72
2017-05-13T14:40:42.089Z,96.13
2017-05-13T14:41:42.797Z,94.69
2017-05-13T14:42:43.503Z,95.03
2017-05-13T14:43:44.214Z,95.21
2017-05-13T14:44:44.896Z,94.98
2017-05-13T14:45:45.625Z,95.79
2017-05-13T14:46:46.310Z,96.47
2017-05-13T14:47:46.986Z,95.7
2017-05-13T14:48:47.654Z,94.93
2017-05-13T14:49:48.346Z,95.51
2017-05-13T14:50:49.117Z,96.18
2017-05-13T14:51:49.832Z,96.37
2017-05-13T14:52:50.529Z,96.08
2017-05-13T14:53:51.235Z,96.66
2017-05-13T14:54:51.904Z,97.09
2017-05-13T14:55:52.582Z,96.99
2017-05-13T14:56:53.252Z,97.47
2017-05-13T14:57:53.928Z,97.38
2017-05-13T14:58:54.587Z,97.47
2017-05-13T14:59:55.262Z,97.66
2017-05-13T15:00:55.930Z,97.95
2017-05-13T15:01:56.620Z,97.47
2017-05-13T15:02:57.309Z,97.19
2017-05-13T15:03:58.016Z,95.94
2017-05-13T15:04:58.699Z,95.55
2017-05-13T15:05:59.382Z,95.84
2017-05-13T15:07:00.090Z,96.22
2017-05-13T15:08:00.787Z,96.61
2017-05-13T15:09:01.480Z,97.09
2017-05-13T15:10:02.168Z,97.19
2017-05-13T15:11:02.862Z,98.05
2017-05-13T15:12:03.544Z,97.66
2017-05-13T15:13:04.236Z,97.47
2017-05-13T15:14:04.924Z,97.09
2017-05-13T15:15:05.613Z,96.8
2017-05-13T15:16:06.309Z,96.22
2017-05-13T15:17:07.010Z,95.84
2017-05-13T15:18:07.756Z,95.6
2017-05-13T15:19:08.425Z,94.74
2017-05-13T15:20:09.119Z,94.35
2017-05-13T15:21:09.798Z,95.21
2017-05-13T15:22:10.477Z,95.79
2017-05-13T15:23:11.180Z,95.5
2017-05-13T15:24:11.865Z,93.82
2017-05-13T15:25:12.550Z,90.13
2017-05-13T15:26:13.254Z,91.04
2017-05-13T15:27:13.941Z,92.19
2017-05-13T15:28:14.628Z,92.57
2017-05-13T15:29:15.328Z,92.67
2017-05-13T15:30:16.024Z,92.38
2017-05-13T15:31:16.726Z,92.67
2017-05-13T15:32:17.457Z,92.57
2017-05-13T15:33:18.143Z,89.64
2017-05-13T15:34:18.835Z,89.31
2017-05-13T15:35:19.511Z,88.16
2017-05-13T15:36:20.192Z,89.22
2017-05-13T15:37:20.905Z,89.12
2017-05-13T15:38:21.586Z,89.5
2017-05-13T15:39:22.303Z,90.03
2017-05-13T15:40:22.986Z,90.41
2017-05-13T15:41:23.697Z,90.94
2017-05-13T15:42:24.379Z,90.7
2017-05-13T15:43:25.082Z,90.6
2017-05-13T15:44:25.769Z,90.31
2017-05-13T15:45:26.467Z,90.66
2017-05-13T15:46:27.162Z,89.74
2017-05-13T15:47:27.844Z,89.5
2017-05-13T15:48:28.539Z,90.22
2017-05-13T15:49:29.237Z,90.56
2017-05-13T15:50:29.926Z,90.27
2017-05-13T15:51:30.613Z,90.31
2017-05-13T15:52:31.324Z,90.75
2017-05-13T15:53:31.982Z,90.84
2017-05-13T15:54:32.674Z,91.71
2017-05-13T15:55:33.346Z,90.56
2017-05-13T15:56:34.053Z,89.4
2017-05-13T15:57:34.761Z,89.69
2017-05-13T15:58:35.499Z,90.17
2017-05-13T15:59:36.208Z,90.94
2017-05-13T16:00:36.881Z,90.8
2017-05-13T16:01:37.564Z,90.75
2017-05-13T16:02:38.252Z,90.75
2017-05-13T16:03:38.957Z,89.98
2017-05-13T16:04:39.636Z,89.5
2017-05-13T16:05:40.345Z,89.22
2017-05-13T16:06:41.030Z,89.31
2017-05-13T16:07:41.723Z,89.79
2017-05-13T16:08:42.417Z,90.17
2017-05-13T16:09:43.112Z,90.84
2017-05-13T16:10:43.801Z,90.84
2017-05-13T16:11:44.482Z,90.75
2017-05-13T16:12:45.164Z,90.56
2017-05-13T16:13:45.880Z,90.75
2017-05-13T16:14:46.570Z,90.56
2017-05-13T16:15:47.239Z,90.66
2017-05-13T16:16:47.924Z,91.33
2017-05-13T16:17:48.619Z,91.23
2017-05-13T16:18:49.280Z,90.66
2017-05-13T16:19:49.981Z,90.66
2017-05-13T16:20:50.682Z,90.56
2017-05-13T16:21:51.402Z,91.81
2017-05-13T16:22:52.093Z,91.81
2017-05-13T16:23:52.771Z,91.13
2017-05-13T16:24:53.485Z,91.33
2017-05-13T16:25:54.164Z,90.17
2017-05-13T16:26:54.900Z,90.27
2017-05-13T16:27:55.589Z,89.6
2017-05-13T16:28:56.275Z,89.02
2017-05-13T16:29:56.966Z,88.83
2017-05-13T16:30:57.659Z,87.96
2017-05-13T16:31:58.338Z,88.25
2017-05-13T16:32:59.033Z,88.06
2017-05-13T16:33:59.727Z,87.49
2017-05-13T16:35:00.402Z,88.21
2017-05-13T16:36:01.107Z,89.07
2017-05-13T16:37:01.793Z,88.59
2017-05-13T16:38:02.482Z,88.79
2017-05-13T16:39:03.186Z,89.07
2017-05-13T16:40:03.912Z,89.17
2017-05-13T16:41:04.597Z,87.92
2017-05-13T16:42:05.310Z,88.02
2017-05-13T16:43:05.991Z,88.21
2017-05-13T16:44:06.687Z,88.21
2017-05-13T16:45:07.380Z,88.4
2017-05-13T16:46:08.087Z,88.59
2017-05-13T16:47:08.812Z,88.88
2017-05-13T16:48:09.514Z,88.4
2017-05-13T16:49:10.224Z,87.05
2017-05-13T16:50:10.900Z,88.21
2017-05-13T16:51:11.571Z,87.25
2017-05-13T16:52:12.254Z,87.05
2017-05-13T16:53:12.943Z,87.15
2017-05-13T16:54:13.628Z,86.96
2017-05-13T16:55:14.317Z,85.91
2017-05-13T16:56:15.006Z,85.42
2017-05-13T16:57:15.709Z,86
2017-05-13T16:58:16.414Z,86.38
2017-05-13T16:59:17.104Z,86.96
2017-05-13T17:00:17.811Z,87.44
2017-05-13T17:01:18.499Z,87.63
2017-05-13T17:02:19.172Z,87.35
2017-05-13T17:03:19.852Z,87.54
2017-05-13T17:04:20.560Z,87.82
2017-05-13T17:05:21.239Z,87.82
2017-05-13T17:06:21.914Z,88.69
2017-05-13T17:07:22.593Z,88.88
2017-05-13T17:08:23.278Z,88.98
2017-05-13T17:09:23.977Z,89.36
2017-05-13T17:10:24.660Z,89.55
2017-05-13T17:11:25.360Z,89.65
2017-05-13T17:12:26.047Z,90.22
2017-05-13T17:13:26.727Z,90.52
2017-05-13T17:14:27.414Z,90.13
2017-05-13T17:15:28.112Z,90.61
2017-05-13T17:16:28.796Z,90.7
2017-05-13T17:17:29.544Z,90.61
2017-05-13T17:18:30.225Z,90.8
2017-05-13T17:19:30.938Z,91.47
2017-05-13T17:20:31.594Z,90.9
2017-05-13T17:21:32.270Z,90.99
2017-05-13T17:22:32.969Z,91.09
2017-05-13T17:23:33.700Z,91.38
2017-05-13T17:24:34.381Z,90.99
2017-05-13T17:25:35.055Z,90.42
2017-05-13T17:26:35.731Z,90.7
2017-05-13T17:27:36.437Z,90.52
2017-05-13T17:28:37.138Z,90.61
2017-05-13T17:29:37.834Z,90.42
2017-05-13T17:30:38.537Z,90.32
2017-05-13T17:31:39.236Z,90.22
2017-05-13T17:32:39.964Z,90.52
2017-05-13T17:33:40.636Z,90.99
2017-05-13T17:34:41.330Z,90.9
2017-05-13T17:35:42.048Z,90.61
2017-05-13T17:36:42.748Z,91.28
2017-05-13T17:37:43.473Z,91.19
2017-05-13T17:38:44.192Z,90.99
2017-05-13T17:39:44.915Z,90.99
2017-05-13T17:40:45.598Z,91.19
2017-05-13T17:41:46.285Z,91.66
2017-05-13T17:42:46.953Z,91.38
2017-05-13T17:43:47.644Z,92.33
2017-05-13T17:44:48.360Z,92.33
2017-05-13T17:45:49.079Z,92.91
2017-05-13T17:46:49.828Z,92.63
2017-05-13T17:47:50.522Z,93.01
2017-05-13T17:48:51.217Z,93.77
2017-05-13T17:49:51.912Z,93.59
2017-05-13T17:50:52.608Z,93.68
2017-05-13T17:51:53.284Z,94.54
2017-05-13T17:52:53.968Z,94.74
2017-05-13T17:53:54.664Z,94.93
2017-05-13T17:54:55.359Z,94.49
2017-05-13T17:55:56.033Z,94.54
2017-05-13T17:56:56.734Z,93.87
2017-05-13T17:57:57.406Z,92.19
2017-05-13T17:58:58.133Z,91.42
2017-05-13T17:59:58.823Z,91.47
2017-05-13T18:00:59.509Z,90.56
2017-05-13T18:02:00.191Z,89.99
2017-05-13T18:03:00.873Z,89.32
2017-05-13T18:04:01.569Z,89.89
2017-05-13T18:05:02.261Z,90.32
2017-05-13T18:06:02.962Z,90.37
2017-05-13T18:07:03.642Z,90.37
2017-05-13T18:08:04.338Z,90.56
2017-05-13T18:09:05.038Z,91.33
2017-05-13T18:10:05.705Z,90.37
2017-05-13T18:11:06.370Z,89.03
2017-05-13T18:12:07.098Z,88.35
2017-05-13T18:13:07.814Z,85.77
2017-05-13T18:14:08.525Z,85.58
2017-05-13T18:15:09.230Z,83.75
2017-05-13T18:16:09.902Z,84.42
2017-05-13T18:17:10.596Z,83.65
2017-05-13T18:18:11.293Z,83.47
2017-05-13T18:19:11.981Z,82.31
2017-05-13T18:20:12.684Z,82.51
2017-05-13T18:21:13.359Z,80.83
2017-05-13T18:22:14.034Z,81.22
2017-05-13T18:23:14.700Z,81.31
2017-05-13T18:24:15.389Z,80.83
2017-05-13T18:25:16.125Z,80.55
2017-05-13T18:26:16.813Z,80.83
2017-05-13T18:27:17.503Z,81.6
2017-05-13T18:28:18.216Z,81.51
2017-05-13T18:29:18.898Z,81.22
2017-05-13T18:30:19.585Z,80.64
2017-05-13T18:31:20.274Z,80.93
2017-05-13T18:32:21.001Z,81.31
2017-05-13T18:33:21.703Z,81.6
2017-05-13T18:34:22.384Z,81.7
2017-05-13T18:35:23.063Z,82.46
2017-05-13T18:36:23.753Z,80.32
2017-05-13T18:37:24.425Z,81.18
2017-05-13T18:38:25.121Z,81.46
2017-05-13T18:39:25.836Z,80.79
2017-05-13T18:40:26.535Z,81.56
2017-05-13T18:41:27.223Z,81.85
2017-05-13T18:42:27.889Z,82.32
2017-05-13T18:43:28.634Z,81.85
2017-05-13T18:44:29.334Z,82.04
2017-05-13T18:45:30.017Z,82.14
2017-05-13T18:46:30.729Z,82.32
2017-05-13T18:47:31.404Z,82.32
2017-05-13T18:48:32.078Z,82.42
2017-05-13T18:49:32.768Z,83.48
2017-05-13T18:50:33.437Z,83.48
2017-05-13T18:51:34.169Z,83.67
2017-05-13T18:52:34.888Z,83.95
2017-05-13T18:53:35.584Z,83.58
2017-05-13T18:54:36.249Z,83.86
2017-05-13T18:55:36.926Z,83.86
2017-05-13T18:56:37.603Z,84.15
2017-05-13T18:57:38.335Z,84.44
2017-05-13T18:58:39.046Z,84.53
2017-05-13T18:59:39.732Z,85.68
2017-05-13T19:00:40.414Z,86.07
2017-05-13T19:01:41.114Z,86.93
2017-05-13T19:02:41.791Z,87.5
2017-05-13T19:03:42.489Z,87.98
2017-05-13T19:04:43.156Z,88.51
2017-05-13T19:05:43.880Z,88.75
2017-05-13T19:06:44.603Z,90.43
2017-05-13T19:07:45.335Z,91.19
2017-05-13T19:08:46.026Z,91.49
2017-05-13T19:09:46.705Z,92.35
2017-05-13T19:10:47.398Z,92.54
2017-05-13T19:11:48.139Z,93.88
2017-05-13T19:12:48.848Z,94.4
2017-05-13T19:13:49.541Z,95.27
2017-05-13T19:14:50.220Z,96.61
2017-05-13T19:15:50.910Z,97.28
2017-05-13T19:16:51.591Z,97.75
2017-05-13T19:17:52.274Z,99.67
2017-05-13T19:18:52.968Z,99.99
2017-05-13T19:19:53.648Z,99.99
2017-05-13T19:20:54.329Z,99.99
2017-05-13T19:21:55.019Z,99.99
2017-05-13T19:22:55.712Z,99.99
2017-05-13T19:23:56.407Z,99.99
2017-05-13T19:24:57.087Z,99.99
2017-05-13T19:25:57.791Z,99.99
2017-05-13T19:26:58.457Z,99.99
2017-05-13T19:27:59.154Z,99.99
2017-05-13T19:28:59.839Z,99.99
2017-05-13T19:30:00.516Z,99.99
2017-05-13T19:31:01.196Z,99.99
2017-05-13T19:32:01.877Z,99.99
2017-05-13T19:33:02.541Z,99.99
2017-05-13T19:34:03.223Z,99.99
2017-05-13T19:35:03.911Z,99.99
2017-05-13T19:36:04.599Z,99.99
2017-05-13T19:37:05.308Z,99.99
2017-05-13T19:38:05.997Z,99.99
2017-05-13T19:39:06.710Z,99.99
2017-05-13T19:40:07.402Z,99.99
2017-05-13T19:41:08.092Z,99.99
2017-05-13T19:42:08.767Z,99.99
2017-05-13T19:43:09.453Z,99.99
2017-05-13T19:44:10.133Z,99.99
2017-05-13T19:45:10.816Z,99.99
2017-05-13T19:46:11.506Z,99.99
2017-05-13T19:47:12.196Z,99.99
2017-05-13T19:48:12.875Z,99.99
2017-05-13T19:49:13.553Z,99.99
2017-05-13T19:50:14.250Z,99.99
2017-05-13T19:51:14.938Z,99.99
2017-05-13T19:52:15.602Z,99.99
2017-05-13T19:53:16.274Z,99.99
2017-05-13T19:54:16.948Z,99.99
2017-05-13T19:55:17.628Z,99.99
2017-05-13T19:56:18.294Z,99.99
2017-05-13T19:57:18.978Z,99.99
2017-05-13T19:58:19.693Z,99.99
2017-05-13T19:59:20.385Z,99.99
2017-05-13T20:00:21.070Z,99.99
2017-05-13T20:01:21.763Z,99.99
2017-05-13T20:02:22.450Z,99.99
2017-05-13T20:03:23.141Z,99.99
2017-05-13T20:04:23.851Z,99.99
2017-05-13T20:05:24.543Z,99.99
2017-05-13T20:06:25.203Z,99.99
2017-05-13T20:07:25.897Z,99.99
2017-05-13T20:08:26.591Z,99.99
2017-05-13T20:09:27.273Z,99.99
2017-05-13T20:10:27.956Z,99.99
2017-05-13T20:11:28.631Z,99.99
2017-05-13T20:12:29.302Z,99.99
2017-05-13T20:13:29.998Z,99.99
2017-05-13T20:14:30.712Z,99.99
2017-05-13T20:15:31.397Z,99.99
2017-05-13T20:16:32.091Z,99.99
2017-05-13T20:17:32.772Z,99.99
2017-05-13T20:18:33.441Z,99.99
2017-05-13T20:19:34.143Z,99.99
2017-05-13T20:20:34.829Z,99.99
2017-05-13T20:21:35.535Z,99.99
2017-05-13T20:22:36.243Z,99.99
2017-05-13T20:23:36.929Z,99.99
2017-05-13T20:24:37.630Z,99.99
2017-05-13T20:25:38.302Z,99.99
2017-05-13T20:26:38.980Z,99.99
2017-05-13T20:27:39.704Z,99.99
2017-05-13T20:28:40.375Z,99.99
2017-05-13T20:29:41.084Z,99.99
2017-05-13T20:30:41.769Z,99.99
2017-05-13T20:31:42.443Z,99.99
2017-05-13T20:32:43.324Z,99.99
2017-05-13T20:33:43.785Z,99.99
2017-05-13T20:34:44.474Z,99.99
2017-05-13T20:35:45.163Z,99.99
2017-05-13T20:36:45.852Z,99.99
2017-05-13T20:37:46.528Z,99.99
2017-05-13T20:38:47.195Z,99.99
2017-05-13T20:39:47.866Z,99.99
2017-05-13T20:40:48.546Z,99.99
2017-05-13T20:41:49.222Z,99.99
2017-05-13T20:42:49.921Z,99.99
2017-05-13T20:43:50.631Z,99.99
2017-05-13T20:44:51.336Z,99.99
2017-05-13T20:45:52.005Z,99.99
2017-05-13T20:46:52.689Z,99.99
2017-05-13T20:47:53.382Z,99.99
2017-05-13T20:48:54.079Z,99.99
2017-05-13T20:49:54.748Z,99.99
2017-05-13T20:50:55.447Z,99.99
2017-05-13T20:51:56.139Z,99.99
2017-05-13T20:52:56.820Z,99.99
2017-05-13T20:53:57.480Z,99.99
2017-05-13T20:54:58.163Z,99.99
2017-05-13T20:55:58.820Z,99.99
2017-05-13T20:56:59.559Z,99.99
2017-05-13T20:58:00.252Z,99.99
2017-05-13T20:59:00.936Z,99.99
2017-05-13T21:00:01.615Z,99.99
2017-05-13T21:01:02.306Z,99.99
2017-05-13T21:02:03.001Z,99.99
2017-05-13T21:03:03.680Z,99.99
2017-05-13T21:04:04.353Z,99.99
2017-05-13T21:05:05.044Z,99.99
2017-05-13T21:06:05.737Z,99.99
2017-05-13T21:07:06.444Z,99.99
2017-05-13T21:08:07.144Z,99.99
2017-05-13T21:09:07.821Z,99.99
2017-05-13T21:10:08.484Z,99.99
2017-05-13T21:11:09.165Z,99.99
2017-05-13T21:12:09.857Z,99.99
2017-05-13T21:13:10.539Z,99.99
2017-05-13T21:14:11.240Z,99.99
2017-05-13T21:15:11.951Z,99.99
2017-05-13T21:16:12.627Z,99.99
2017-05-13T21:17:13.293Z,99.99
2017-05-13T21:18:13.979Z,99.99
2017-05-13T21:19:14.649Z,99.99
2017-05-13T21:20:15.316Z,99.99
2017-05-13T21:21:16.017Z,99.99
2017-05-13T21:22:16.741Z,99.99
2017-05-13T21:23:17.446Z,99.99
2017-05-13T21:24:18.148Z,99.99
2017-05-13T21:25:18.831Z,99.99
2017-05-13T21:26:19.535Z,99.99
2017-05-13T21:27:20.212Z,99.99
2017-05-13T21:28:21.643Z,99.99